createdAt,value
2023-05-07T00:11:20.081Z,99.9
2023-05-07T00:13:17.703Z,99.9
2023-05-07T00:17:12.890Z,99.9
2023-05-07T00:21:16.028Z,99.9
2023-05-07T00:23:13.609Z,99.9
2023-05-07T00:25:11.243Z,99.9
2023-05-07T00:26:14.000Z,99.9
2023-05-07T00:28:11.615Z,99.9
2023-05-07T00:30:09.436Z,99.9
2023-05-07T00:36:09.899Z,99.9
2023-05-07T00:38:08.141Z,99.9
2023-05-07T00:40:05.129Z,99.9
2023-05-07T00:42:02.712Z,99.9
2023-05-07T00:44:00.309Z,99.9
2023-05-07T00:45:58.016Z,99.9
2023-05-07T00:48:03.551Z,99.9
2023-05-07T00:50:01.041Z,99.9
2023-05-07T00:51:58.641Z,99.9
2023-05-07T00:53:56.236Z,99.9
2023-05-07T00:55:53.842Z,99.9
2023-05-07T00:57:51.450Z,99.9
2023-05-07T01:01:54.576Z,99.9
2023-05-07T01:11:42.632Z,99.9
2023-05-07T01:13:40.225Z,99.9
2023-05-07T01:15:45.747Z,99.9
2023-05-07T01:17:43.408Z,99.9
2023-05-07T01:19:40.997Z,99.9
2023-05-07T01:20:43.758Z,99.9
2023-05-07T01:22:41.373Z,99.9
2023-05-07T01:24:38.990Z,99.9
2023-05-07T01:28:42.137Z,99.9
2023-05-07T01:34:36.473Z,99.9
2023-05-07T01:36:34.097Z,99.9
2023-05-07T01:56:26.016Z,99.9
2023-05-07T01:58:23.645Z,99.9
2023-05-07T02:00:21.235Z,99.9
2023-05-07T02:02:18.836Z,99.9
2023-05-07T02:04:16.591Z,99.9
2023-05-07T02:06:14.054Z,99.9
2023-05-07T02:10:17.190Z,99.9
2023-05-07T02:12:14.813Z,99.9
2023-05-07T02:14:12.427Z,99.9
2023-05-07T02:19:10.424Z,99.9
2023-05-07T02:21:08.036Z,99.9
2023-05-07T02:23:13.553Z,99.9
2023-05-07T02:25:11.159Z,99.9
2023-05-07T02:27:08.777Z,99.9
2023-05-07T02:29:06.395Z,99.9
2023-05-07T02:31:03.983Z,99.9
2023-05-07T02:33:01.640Z,99.9
2023-05-07T02:34:59.229Z,99.9
2023-05-07T02:37:04.751Z,99.9
2023-05-07T02:39:02.359Z,99.9
2023-05-07T02:42:57.591Z,99.9
2023-05-07T02:44:55.219Z,99.9
2023-05-07T02:46:52.832Z,99.9
2023-05-07T02:50:55.956Z,99.9
2023-05-07T02:58:46.396Z,99.9
2023-05-07T03:02:41.624Z,99.9
2023-05-07T03:04:47.151Z,99.9
2023-05-07T03:06:44.829Z,99.9
2023-05-07T03:08:42.338Z,99.9
2023-05-07T03:11:09.294Z,99.9
2023-05-07T03:13:07.062Z,99.9
2023-05-07T03:19:07.715Z,99.9
2023-05-07T03:23:02.791Z,99.9
2023-05-07T03:25:00.397Z,99.9
2023-05-07T03:26:58.015Z,99.9
2023-05-07T03:28:55.632Z,99.9
2023-05-07T03:31:01.213Z,99.9
2023-05-07T03:32:58.795Z,99.9
2023-05-07T03:34:56.365Z,99.9
2023-05-07T03:36:53.972Z,99.9
2023-05-07T03:38:51.604Z,99.9
2023-05-07T03:40:49.200Z,99.9
2023-05-07T03:42:46.790Z,99.9
2023-05-07T03:44:52.340Z,99.9
2023-05-07T03:46:50.059Z,99.9
2023-05-07T03:48:47.548Z,99.9
2023-05-07T03:50:45.148Z,99.9
2023-05-07T03:52:42.755Z,99.9
2023-05-07T03:54:40.349Z,99.9
2023-05-07T03:56:37.955Z,99.9
2023-05-07T04:03:41.562Z,99.9
2023-05-07T04:05:39.072Z,99.9
2023-05-07T04:07:36.678Z,99.9
2023-05-07T04:11:39.851Z,99.9
2023-05-07T04:17:32.662Z,99.9
2023-05-07T04:19:30.307Z,99.9
2023-05-07T04:23:25.491Z,99.9
2023-05-07T04:29:26.250Z,99.9
2023-05-07T04:33:21.504Z,99.9
2023-05-07T04:39:22.245Z,99.9
2023-05-07T04:47:12.702Z,99.9
2023-05-07T04:51:07.915Z,99.9
2023-05-07T04:53:13.437Z,99.9
2023-05-07T04:55:11.033Z,99.9
2023-05-07T04:57:08.664Z,99.9
2023-05-07T04:58:11.412Z,99.9
2023-05-07T05:00:09.209Z,99.9
2023-05-07T05:02:06.614Z,99.9
2023-05-07T05:06:09.767Z,99.9
2023-05-07T05:08:07.371Z,99.9
2023-05-07T05:10:04.935Z,99.9
2023-05-07T05:14:00.176Z,99.9
2023-05-07T05:15:57.829Z,99.9
2023-05-07T05:17:55.449Z,99.9
2023-05-07T05:20:00.958Z,99.9
2023-05-07T05:31:46.583Z,99.9
2023-05-07T05:37:47.291Z,99.9
2023-05-07T05:39:44.908Z,99.9
2023-05-07T05:41:42.505Z,99.9
2023-05-07T05:45:37.724Z,99.9
2023-05-07T05:47:43.289Z,99.9
2023-05-07T05:49:40.830Z,99.9
2023-05-07T05:51:38.420Z,99.9
2023-05-07T05:52:41.198Z,99.9
2023-05-07T05:54:38.840Z,99.9
2023-05-07T05:56:36.404Z,99.9
2023-05-07T06:00:39.581Z,99.9
2023-05-07T06:02:37.243Z,99.9
2023-05-07T06:06:32.338Z,99.9
2023-05-07T06:08:29.947Z,99.9
2023-05-07T06:16:28.347Z,99.9
2023-05-07T06:18:25.900Z,99.9
2023-05-07T06:20:23.503Z,99.9
2023-05-07T06:22:21.122Z,99.9
2023-05-07T06:24:18.752Z,99.9
2023-05-07T06:26:16.331Z,99.9
2023-05-07T06:28:21.827Z,99.9
2023-05-07T06:34:14.677Z,99.9
2023-05-07T06:38:09.865Z,99.9
2023-05-07T06:40:07.509Z,99.9
2023-05-07T06:42:12.952Z,99.9
2023-05-07T06:44:10.573Z,99.9
2023-05-07T06:46:08.217Z,99.9
2023-05-07T06:48:25.283Z,99.9
2023-05-07T06:50:22.893Z,99.9
2023-05-07T06:52:20.468Z,99.9
2023-05-07T06:54:26.030Z,99.9
2023-05-07T06:56:23.621Z,99.9
2023-05-07T06:58:21.224Z,99.9
2023-05-07T07:00:18.830Z,99.9
2023-05-07T07:02:18.113Z,99.9
2023-05-07T07:04:14.142Z,99.9
2023-05-07T07:06:11.655Z,99.9
2023-05-07T07:08:17.182Z,99.9
2023-05-07T07:12:13.952Z,99.9
2023-05-07T07:14:11.520Z,99.9
2023-05-07T07:16:09.125Z,99.9
2023-05-07T07:18:06.760Z,99.9
2023-05-07T07:20:04.321Z,99.9
2023-05-07T07:22:09.860Z,99.9
2023-05-07T07:24:07.445Z,99.9
2023-05-07T07:26:05.066Z,99.9
2023-05-07T07:30:00.254Z,99.9
2023-05-07T07:31:57.896Z,99.9
2023-05-07T07:37:58.521Z,99.9
2023-05-07T07:39:56.123Z,99.9
2023-05-07T07:40:58.904Z,99.9
2023-05-07T07:42:56.511Z,99.9
2023-05-07T07:48:57.226Z,99.9
2023-05-07T07:50:54.806Z,99.9
2023-05-07T07:56:47.593Z,99.9
2023-05-07T07:58:45.201Z,99.9
2023-05-07T08:02:48.469Z,99.9
2023-05-07T08:10:38.680Z,99.9
2023-05-07T08:12:36.311Z,99.9
2023-05-07T08:14:33.881Z,99.9
2023-05-07T08:16:39.489Z,99.9
2023-05-07T08:18:36.984Z,99.9
2023-05-07T08:20:34.565Z,99.9
2023-05-07T08:22:32.211Z,99.9
2023-05-07T08:24:29.755Z,99.9
2023-05-07T08:26:27.322Z,99.9
2023-05-07T08:28:24.911Z,99.9
2023-05-07T08:39:23.524Z,99.9
2023-05-07T08:41:21.115Z,99.9
2023-05-07T08:43:26.616Z,99.9
2023-05-07T08:49:19.353Z,99.9
2023-05-07T08:51:16.928Z,99.9
2023-05-07T08:55:12.255Z,99.9
2023-05-07T08:57:17.569Z,99.9
2023-05-07T08:59:15.157Z,99.9
2023-05-07T09:01:12.712Z,99.9
2023-05-07T09:07:05.441Z,99.9
2023-05-07T09:09:03.024Z,99.9
2023-05-07T09:11:08.523Z,99.9
2023-05-07T09:15:03.707Z,99.9
2023-05-07T09:28:54.586Z,99.9
2023-05-07T09:29:57.309Z,99.9
2023-05-07T09:31:54.956Z,99.9
2023-05-07T09:33:52.439Z,99.9
2023-05-07T09:35:50.006Z,99.9
2023-05-07T09:37:55.520Z,99.9
2023-05-07T09:39:53.070Z,99.9
2023-05-07T09:41:50.644Z,99.9
2023-05-07T09:43:48.214Z,99.9
2023-05-07T09:47:43.360Z,99.9
2023-05-07T09:49:40.901Z,99.9
2023-05-07T09:53:43.988Z,99.9
2023-05-07T09:55:41.545Z,99.9
2023-05-07T09:57:39.095Z,99.9
2023-05-07T09:59:36.666Z,99.9
2023-05-07T10:03:31.916Z,99.9
2023-05-07T10:07:34.871Z,99.9
2023-05-07T10:09:32.446Z,99.9
2023-05-07T10:11:30.021Z,99.9
2023-05-07T10:13:27.691Z,99.9
2023-05-07T10:17:22.833Z,99.9
2023-05-07T10:19:28.234Z,99.9
2023-05-07T10:23:23.372Z,99.9
2023-05-07T10:25:46.118Z,99.9
2023-05-07T10:31:46.728Z,99.9
2023-05-07T10:35:41.900Z,99.9
2023-05-07T10:37:39.455Z,99.9
2023-05-07T10:39:37.014Z,99.9
2023-05-07T10:41:34.584Z,99.9
2023-05-07T10:47:35.289Z,99.9
2023-05-07T10:49:32.854Z,99.9
2023-05-07T10:51:30.406Z,99.9
2023-05-07T10:55:25.556Z,99.9
2023-05-07T10:57:23.115Z,99.9
2023-05-07T10:59:28.644Z,99.9
2023-05-07T11:01:27.581Z,99.9
2023-05-07T11:05:21.355Z,99.9
2023-05-07T11:07:18.896Z,99.9
2023-05-07T11:11:14.054Z,99.9
2023-05-07T11:13:19.667Z,99.9
2023-05-07T11:15:17.232Z,99.9
2023-05-07T11:17:14.646Z,99.9
2023-05-07T11:18:17.385Z,99.9
2023-05-07T11:20:14.962Z,99.9
2023-05-07T11:22:12.515Z,99.9
2023-05-07T11:24:10.063Z,99.9
2023-05-07T11:26:15.555Z,99.9
2023-05-07T11:30:10.642Z,99.9
2023-05-07T11:34:05.742Z,99.9
2023-05-07T11:36:03.269Z,99.9
2023-05-07T11:38:00.793Z,99.9
2023-05-07T11:40:06.268Z,99.9
2023-05-07T11:44:01.307Z,99.6
2023-05-07T11:45:58.866Z,99
2023-05-07T11:57:52.410Z,96.1
2023-05-07T12:09:45.244Z,92
2023-05-07T12:18:37.753Z,91.5
2023-05-07T12:22:40.623Z,88.1
2023-05-07T12:24:38.075Z,86.9
2023-05-07T12:26:35.525Z,86.6
2023-05-07T12:30:30.375Z,86
2023-05-07T12:40:25.504Z,89.6
2023-05-07T12:42:22.952Z,89.6
2023-05-07T12:44:20.404Z,89.9
2023-05-07T12:46:17.878Z,89.6
2023-05-07T12:50:20.693Z,89.5
2023-05-07T12:52:18.158Z,89.4
2023-05-07T12:54:17.163Z,90
2023-05-07T12:56:15.080Z,90.2
2023-05-07T12:58:12.532Z,90.2
2023-05-07T13:00:09.995Z,90.6
2023-05-07T13:02:15.411Z,91.1
2023-05-07T13:04:12.915Z,91.1
2023-05-07T13:06:10.366Z,91.3
2023-05-07T13:09:10.538Z,91.7
2023-05-07T13:11:07.997Z,91.7
2023-05-07T13:15:11.130Z,91.9
2023-05-07T13:17:08.364Z,92
2023-05-07T13:21:03.349Z,92
2023-05-07T13:34:53.660Z,90.7
2023-05-07T13:36:51.185Z,90.6
2023-05-07T13:38:48.615Z,90.9
2023-05-07T13:40:46.083Z,91.2
2023-05-07T13:50:41.426Z,92.3
2023-05-07T13:54:36.398Z,92.3
2023-05-07T13:56:41.847Z,92.3
2023-05-07T14:00:36.840Z,92.6
2023-05-07T14:03:03.743Z,92.2
2023-05-07T14:05:01.175Z,92.2
2023-05-07T14:06:58.630Z,92.2
2023-05-07T14:11:01.526Z,92.1
2023-05-07T14:12:59.077Z,92.3
2023-05-07T14:14:56.500Z,92.4
2023-05-07T14:18:51.525Z,92.4
2023-05-07T14:20:49.032Z,92.4
2023-05-07T14:25:03.229Z,92.5
2023-05-07T14:26:49.488Z,92.6
2023-05-07T14:28:47.011Z,92.6
2023-05-07T14:30:44.483Z,92.9
2023-05-07T14:34:39.451Z,93.2
2023-05-07T14:36:44.914Z,93.4
2023-05-07T14:40:39.893Z,93.8
2023-05-07T14:44:34.920Z,94.4
2023-05-07T14:46:32.471Z,95.4
2023-05-07T14:50:35.387Z,96.4
2023-05-07T14:55:34.260Z,97.7
2023-05-07T14:57:32.895Z,98
2023-05-07T14:59:28.198Z,98.5
2023-05-07T15:01:25.777Z,98.9
2023-05-07T15:03:31.289Z,99.6
2023-05-07T15:05:28.692Z,99.7
2023-05-07T15:07:26.225Z,99.9
2023-05-07T15:09:23.745Z,99.9
2023-05-07T15:11:21.258Z,99.9
2023-05-07T15:13:18.855Z,99.9
2023-05-07T15:15:16.319Z,99.9
2023-05-07T15:17:21.847Z,99.9
2023-05-07T15:19:19.348Z,99.9
2023-05-07T15:21:16.887Z,99.9
2023-05-07T15:23:14.469Z,99.9
2023-05-07T15:33:10.129Z,99.9
2023-05-07T15:39:02.773Z,99.9
2023-05-07T15:42:57.888Z,99.9
2023-05-07T15:45:03.383Z,99.9
2023-05-07T15:47:00.945Z,99.9
2023-05-07T15:48:58.540Z,99.9
2023-05-07T15:50:01.278Z,99.9
2023-05-07T15:53:56.397Z,99.9
2023-05-07T15:57:59.464Z,99.9
2023-05-07T15:59:57.029Z,99.9
2023-05-07T16:01:54.661Z,99.9
2023-05-07T16:03:52.258Z,99.9
2023-05-07T16:05:49.706Z,99.9
2023-05-07T16:07:47.273Z,99.9
2023-05-07T16:09:44.823Z,99.9
2023-05-07T16:11:50.340Z,99.9
2023-05-07T16:13:47.911Z,99.9
2023-05-07T16:21:38.136Z,99.9
2023-05-07T16:37:26.601Z,99.9
2023-05-07T16:39:32.088Z,99.9
2023-05-07T16:41:29.643Z,99.9
2023-05-07T16:43:27.208Z,99.9
2023-05-07T16:44:29.974Z,99.9
2023-05-07T16:46:27.587Z,99.9
2023-05-07T16:48:25.120Z,99.9
2023-05-07T16:50:22.681Z,99.9
2023-05-07T16:56:23.315Z,99.9
2023-05-07T17:08:16.675Z,99.9
2023-05-07T17:10:14.237Z,99.9
2023-05-07T17:12:11.809Z,99.9
2023-05-07T17:14:09.396Z,99.9
2023-05-07T17:16:07.013Z,99.9
2023-05-07T17:18:04.569Z,99.9
2023-05-07T17:20:10.096Z,99.9
2023-05-07T17:22:07.578Z,99.9
2023-05-07T17:24:05.162Z,99.9
2023-05-07T17:29:57.878Z,99.9
2023-05-07T17:31:55.494Z,99.9
2023-05-07T17:34:01.008Z,99.9
2023-05-07T17:35:58.566Z,99.9
2023-05-07T17:40:23.007Z,99.9
2023-05-07T17:42:20.569Z,99.9
2023-05-07T17:44:18.160Z,99.9
2023-05-07T17:46:23.727Z,99.9
2023-05-07T17:48:21.221Z,99.9
2023-05-07T17:54:13.976Z,99.9
2023-05-07T17:56:11.559Z,99.9
2023-05-07T18:04:09.813Z,99.9
2023-05-07T18:06:09.454Z,99.9
2023-05-07T18:08:04.992Z,99.9
2023-05-07T18:10:02.579Z,99.9
2023-05-07T18:12:00.206Z,99.9
2023-05-07T18:14:05.692Z,99.9
2023-05-07T18:16:03.324Z,99.9
2023-05-07T18:18:00.901Z,99.9
2023-05-07T18:19:58.417Z,99.9
2023-05-07T18:21:56.042Z,99.9
2023-05-07T18:32:54.639Z,99.9
2023-05-07T18:34:53.747Z,99.9
2023-05-07T18:36:51.255Z,99.9
2023-05-07T18:38:48.853Z,99.9
2023-05-07T18:40:54.363Z,99.9
2023-05-07T18:46:47.112Z,99.9
2023-05-07T18:48:44.704Z,99.9
2023-05-07T18:50:42.278Z,99.9
2023-05-07T18:52:39.874Z,99.9
2023-05-07T18:54:45.368Z,99.9
2023-05-07T18:56:42.976Z,99.9
2023-05-07T18:58:40.533Z,99.9
2023-05-07T19:06:33.279Z,99.9
2023-05-07T19:10:34.000Z,99.9
2023-05-07T19:14:29.185Z,99.9
2023-05-07T19:16:26.777Z,99.9
2023-05-07T19:18:24.324Z,99.9
2023-05-07T19:20:21.905Z,99.9
2023-05-07T19:22:27.429Z,99.9
2023-05-07T19:24:25.031Z,99.9
2023-05-07T19:26:22.613Z,99.9
2023-05-07T19:27:26.011Z,99.9
2023-05-07T19:29:23.598Z,99.9
2023-05-07T19:31:21.219Z,99.9
2023-05-07T19:37:21.888Z,99.9
2023-05-07T19:41:17.050Z,99.9
2023-05-07T19:43:14.670Z,99.9
2023-05-07T19:45:12.355Z,99.9
2023-05-07T19:47:09.823Z,99.9
2023-05-07T19:49:15.357Z,99.9
2023-05-07T19:55:08.154Z,99.9
2023-05-07T19:57:05.757Z,99.9
2023-05-07T19:59:03.330Z,99.9
2023-05-07T20:01:00.900Z,99.9
2023-05-07T20:03:06.534Z,99.9
2023-05-07T20:05:04.014Z,99.9
2023-05-07T20:08:59.219Z,99.9
2023-05-07T20:16:57.468Z,99.9
2023-05-07T20:18:55.101Z,99.9
2023-05-07T20:21:55.422Z,99.9
2023-05-07T20:23:53.036Z,99.9
2023-05-07T20:27:48.200Z,99.9
2023-05-07T20:31:51.349Z,99.9
2023-05-07T20:33:48.891Z,99.9
2023-05-07T20:37:44.100Z,99.9
2023-05-07T20:39:41.634Z,99.9
2023-05-07T20:41:39.187Z,99.9
2023-05-07T20:43:44.739Z,99.9
2023-05-07T20:47:39.963Z,99.9
2023-05-07T20:49:37.480Z,99.9
2023-05-07T20:53:32.672Z,99.9
2023-05-07T20:57:35.764Z,99.9
2023-05-07T21:01:30.980Z,99.9
2023-05-07T21:05:26.102Z,99.9
2023-05-07T21:07:23.698Z,99.9
2023-05-07T21:09:21.278Z,99.9
2023-05-07T21:11:26.789Z,99.9
2023-05-07T21:13:24.449Z,99.9
2023-05-07T21:15:21.957Z,99.9
2023-05-07T21:21:44.084Z,99.9
2023-05-07T21:23:49.591Z,99.9
2023-05-07T21:25:47.312Z,99.9
2023-05-07T21:29:42.391Z,99.9
2023-05-07T21:31:40.023Z,99.9
2023-05-07T21:35:35.168Z,99.9
2023-05-07T21:43:33.446Z,99.9
2023-05-07T21:47:28.640Z,99.9
2023-05-07T21:49:26.240Z,99.9
2023-05-07T21:51:31.747Z,99.9
2023-05-07T21:53:29.359Z,99.9
2023-05-07T21:55:26.941Z,99.9
2023-05-07T21:57:24.515Z,99.9
2023-05-07T21:59:22.093Z,99.9
2023-05-07T22:03:17.417Z,99.9
2023-05-07T22:05:22.773Z,99.9
2023-05-07T22:07:20.374Z,99.9
2023-05-07T22:09:17.973Z,99.9
2023-05-07T22:14:16.584Z,99.9
2023-05-07T22:20:16.670Z,99.9
2023-05-07T22:22:14.255Z,99.9
2023-05-07T22:24:11.844Z,99.9
2023-05-07T22:26:09.474Z,99.9
2023-05-07T22:28:07.109Z,99.9
2023-05-07T22:30:04.690Z,99.9
2023-05-07T22:32:11.943Z,99.9
2023-05-07T22:34:07.805Z,99.9
2023-05-07T22:36:05.400Z,99.9
2023-05-07T22:38:02.974Z,99.9
2023-05-07T22:40:00.552Z,99.9
2023-05-07T22:41:58.174Z,99.9
2023-05-07T22:43:55.734Z,99.9
2023-05-07T22:46:01.322Z,99.9
2023-05-07T22:49:56.444Z,99.9
2023-05-07T23:04:50.274Z,99.9
2023-05-07T23:06:47.905Z,99.9
2023-05-07T23:08:45.476Z,99.9
2023-05-07T23:10:43.080Z,99.9
2023-05-07T23:12:48.672Z,99.9
2023-05-07T23:14:46.215Z,99.9
2023-05-07T23:22:36.569Z,99.9
2023-05-07T23:24:34.163Z,99.9
2023-05-07T23:34:30.086Z,99.9
2023-05-07T23:36:27.691Z,99.9
2023-05-07T23:38:25.302Z,99.9
2023-05-07T23:42:28.356Z,99.9
2023-05-07T23:44:25.976Z,99.9
2023-05-07T23:50:18.781Z,99.9
2023-05-07T23:54:21.916Z,99.9
2023-05-07T23:56:19.507Z,99.9
2023-05-07T23:58:17.075Z,99.9
2023-05-07T23:59:19.867Z,99.9
